sensor_id;sensor_type;location;lat;lon;timestamp;P1;durP1;ratioP1;P2;durP2;ratioP2
70560;SDS011;58109;53.570;10.084;2023-03-03T00:00:35;50.35;;;20.83;;
70560;SDS011;58109;53.570;10.084;2023-03-03T00:03:01;49.27;;;19.37;;
70560;SDS011;58109;53.570;10.084;2023-03-03T00:05:30;44.50;;;19.20;;
70560;SDS011;58109;53.570;10.084;2023-03-03T00:08:03;48.88;;;20.55;;
70560;SDS011;58109;53.570;10.084;2023-03-03T00:10:29;47.05;;;19.23;;
70560;SDS011;58109;53.570;10.084;2023-03-03T00:12:57;46.75;;;19.33;;
70560;SDS011;58109;53.570;10.084;2023-03-03T00:15:24;48.05;;;19.40;;
70560;SDS011;58109;53.570;10.084;2023-03-03T00:17:52;52.97;;;22.40;;
70560;SDS011;58109;53.570;10.084;2023-03-03T00:22:55;52.38;;;21.10;;
70560;SDS011;58109;53.570;10.084;2023-03-03T00:25:30;50.85;;;20.52;;
70560;SDS011;58109;53.570;10.084;2023-03-03T00:28:06;55.25;;;21.58;;
70560;SDS011;58109;53.570;10.084;2023-03-03T00:30:56;57.45;;;21.30;;
70560;SDS011;58109;53.570;10.084;2023-03-03T00:33:31;48.72;;;21.02;;
70560;SDS011;58109;53.570;10.084;2023-03-03T00:38:39;52.28;;;21.38;;
70560;SDS011;58109;53.570;10.084;2023-03-03T00:41:24;58.37;;;22.50;;
70560;SDS011;58109;53.570;10.084;2023-03-03T00:43:53;54.63;;;20.98;;
70560;SDS011;58109;53.570;10.084;2023-03-03T00:46:22;69.80;;;26.88;;
70560;SDS011;58109;53.570;10.084;2023-03-03T00:48:50;60.38;;;23.73;;
70560;SDS011;58109;53.570;10.084;2023-03-03T00:53:47;54.65;;;22.98;;
70560;SDS011;58109;53.570;10.084;2023-03-03T00:56:13;59.40;;;22.48;;
70560;SDS011;58109;53.570;10.084;2023-03-03T00:58:41;54.30;;;22.10;;
70560;SDS011;58109;53.570;10.084;2023-03-03T01:01:09;56.78;;;22.48;;
70560;SDS011;58109;53.570;10.084;2023-03-03T01:03:35;65.90;;;23.03;;
70560;SDS011;58109;53.570;10.084;2023-03-03T01:06:03;62.20;;;22.60;;
70560;SDS011;58109;53.570;10.084;2023-03-03T01:08:28;52.15;;;22.05;;
70560;SDS011;58109;53.570;10.084;2023-03-03T01:10:55;53.27;;;22.10;;
70560;SDS011;58109;53.570;10.084;2023-03-03T01:13:30;54.28;;;21.80;;
70560;SDS011;58109;53.570;10.084;2023-03-03T01:15:57;56.78;;;22.33;;
70560;SDS011;58109;53.570;10.084;2023-03-03T01:18:23;54.83;;;23.67;;
70560;SDS011;58109;53.570;10.084;2023-03-03T01:20:48;49.83;;;21.80;;
70560;SDS011;58109;53.570;10.084;2023-03-03T01:23:14;58.27;;;21.50;;
70560;SDS011;58109;53.570;10.084;2023-03-03T01:25:39;49.17;;;22.30;;
70560;SDS011;58109;53.570;10.084;2023-03-03T01:28:09;45.90;;;18.88;;
70560;SDS011;58109;53.570;10.084;2023-03-03T01:30:34;52.00;;;22.30;;
70560;SDS011;58109;53.570;10.084;2023-03-03T01:33:00;57.80;;;20.20;;
70560;SDS011;58109;53.570;10.084;2023-03-03T01:35:28;50.10;;;21.50;;
70560;SDS011;58109;53.570;10.084;2023-03-03T01:37:58;47.88;;;20.52;;
70560;SDS011;58109;53.570;10.084;2023-03-03T01:40:25;53.53;;;21.90;;
70560;SDS011;58109;53.570;10.084;2023-03-03T01:42:54;50.72;;;20.95;;
70560;SDS011;58109;53.570;10.084;2023-03-03T01:45:29;45.35;;;20.63;;
70560;SDS011;58109;53.570;10.084;2023-03-03T01:48:35;48.35;;;21.25;;
70560;SDS011;58109;53.570;10.084;2023-03-03T01:51:04;49.13;;;21.05;;
70560;SDS011;58109;53.570;10.084;2023-03-03T01:53:45;49.45;;;19.88;;
70560;SDS011;58109;53.570;10.084;2023-03-03T01:56:14;47.80;;;19.25;;
70560;SDS011;58109;53.570;10.084;2023-03-03T02:01:16;42.20;;;19.15;;
70560;SDS011;58109;53.570;10.084;2023-03-03T02:03:44;42.45;;;19.25;;
70560;SDS011;58109;53.570;10.084;2023-03-03T02:06:12;43.57;;;18.50;;
70560;SDS011;58109;53.570;10.084;2023-03-03T02:11:28;37.50;;;18.15;;
70560;SDS011;58109;53.570;10.084;2023-03-03T02:13:57;42.05;;;18.88;;
70560;SDS011;58109;53.570;10.084;2023-03-03T02:16:22;39.63;;;19.37;;
70560;SDS011;58109;53.570;10.084;2023-03-03T02:18:50;45.70;;;19.90;;
70560;SDS011;58109;53.570;10.084;2023-03-03T02:21:17;40.97;;;19.50;;
70560;SDS011;58109;53.570;10.084;2023-03-03T02:23:48;44.17;;;20.90;;
70560;SDS011;58109;53.570;10.084;2023-03-03T02:26:30;42.78;;;19.10;;
70560;SDS011;58109;53.570;10.084;2023-03-03T02:28:57;39.67;;;19.20;;
70560;SDS011;58109;53.570;10.084;2023-03-03T02:31:26;39.00;;;19.92;;
70560;SDS011;58109;53.570;10.084;2023-03-03T02:33:57;49.28;;;19.13;;
70560;SDS011;58109;53.570;10.084;2023-03-03T02:36:27;39.25;;;19.08;;
70560;SDS011;58109;53.570;10.084;2023-03-03T02:39:16;33.75;;;18.65;;
70560;SDS011;58109;53.570;10.084;2023-03-03T02:44:27;37.67;;;18.45;;
70560;SDS011;58109;53.570;10.084;2023-03-03T02:46:54;40.85;;;18.58;;
70560;SDS011;58109;53.570;10.084;2023-03-03T02:49:22;40.63;;;19.63;;
70560;SDS011;58109;53.570;10.084;2023-03-03T02:51:49;41.08;;;18.70;;
70560;SDS011;58109;53.570;10.084;2023-03-03T02:54:18;34.60;;;18.75;;
70560;SDS011;58109;53.570;10.084;2023-03-03T02:56:49;39.88;;;20.75;;
70560;SDS011;58109;53.570;10.084;2023-03-03T02:59:15;39.30;;;20.00;;
70560;SDS011;58109;53.570;10.084;2023-03-03T03:01:41;40.03;;;19.13;;
70560;SDS011;58109;53.570;10.084;2023-03-03T03:04:10;41.45;;;19.60;;
70560;SDS011;58109;53.570;10.084;2023-03-03T03:06:39;33.30;;;18.10;;
70560;SDS011;58109;53.570;10.084;2023-03-03T03:09:06;38.37;;;18.40;;
70560;SDS011;58109;53.570;10.084;2023-03-03T03:11:32;37.25;;;18.55;;
70560;SDS011;58109;53.570;10.084;2023-03-03T03:13:59;37.95;;;16.80;;
70560;SDS011;58109;53.570;10.084;2023-03-03T03:16:24;27.33;;;15.60;;
70560;SDS011;58109;53.570;10.084;2023-03-03T03:18:50;33.50;;;16.90;;
70560;SDS011;58109;53.570;10.084;2023-03-03T03:21:15;29.40;;;16.47;;
70560;SDS011;58109;53.570;10.084;2023-03-03T03:23:41;33.00;;;16.63;;
70560;SDS011;58109;53.570;10.084;2023-03-03T03:26:09;27.80;;;15.45;;
70560;SDS011;58109;53.570;10.084;2023-03-03T03:28:38;27.52;;;15.25;;
70560;SDS011;58109;53.570;10.084;2023-03-03T03:31:06;30.40;;;16.27;;
70560;SDS011;58109;53.570;10.084;2023-03-03T03:33:33;32.20;;;17.40;;
70560;SDS011;58109;53.570;10.084;2023-03-03T03:35:59;32.13;;;16.03;;
70560;SDS011;58109;53.570;10.084;2023-03-03T03:38:27;30.03;;;16.73;;
70560;SDS011;58109;53.570;10.084;2023-03-03T03:40:53;27.17;;;15.50;;
70560;SDS011;58109;53.570;10.084;2023-03-03T03:43:19;26.50;;;14.80;;
70560;SDS011;58109;53.570;10.084;2023-03-03T03:45:45;24.77;;;14.70;;
70560;SDS011;58109;53.570;10.084;2023-03-03T03:48:14;28.00;;;15.98;;
70560;SDS011;58109;53.570;10.084;2023-03-03T03:50:43;27.13;;;15.82;;
70560;SDS011;58109;53.570;10.084;2023-03-03T03:53:08;25.15;;;14.20;;
70560;SDS011;58109;53.570;10.084;2023-03-03T03:55:34;27.23;;;14.53;;
70560;SDS011;58109;53.570;10.084;2023-03-03T03:57:59;23.90;;;13.47;;
70560;SDS011;58109;53.570;10.084;2023-03-03T04:00:24;26.07;;;14.47;;
70560;SDS011;58109;53.570;10.084;2023-03-03T04:02:52;25.45;;;15.45;;
70560;SDS011;58109;53.570;10.084;2023-03-03T04:05:17;25.93;;;14.10;;
70560;SDS011;58109;53.570;10.084;2023-03-03T04:07:45;30.08;;;15.85;;
70560;SDS011;58109;53.570;10.084;2023-03-03T04:10:10;23.60;;;14.90;;
70560;SDS011;58109;53.570;10.084;2023-03-03T04:12:41;26.45;;;14.60;;
70560;SDS011;58109;53.570;10.084;2023-03-03T04:15:10;30.30;;;15.37;;
70560;SDS011;58109;53.570;10.084;2023-03-03T04:17:39;32.67;;;15.88;;
70560;SDS011;58109;53.570;10.084;2023-03-03T04:20:05;28.23;;;15.65;;
70560;SDS011;58109;53.570;10.084;2023-03-03T04:22:34;29.33;;;16.30;;
70560;SDS011;58109;53.570;10.084;2023-03-03T04:25:03;26.67;;;15.20;;
70560;SDS011;58109;53.570;10.084;2023-03-03T04:27:31;25.25;;;14.88;;
70560;SDS011;58109;53.570;10.084;2023-03-03T04:29:57;31.80;;;16.10;;
70560;SDS011;58109;53.570;10.084;2023-03-03T04:32:25;24.10;;;14.05;;
70560;SDS011;58109;53.570;10.084;2023-03-03T04:34:51;32.50;;;15.60;;
70560;SDS011;58109;53.570;10.084;2023-03-03T04:37:17;33.23;;;16.27;;
70560;SDS011;58109;53.570;10.084;2023-03-03T04:39:42;31.47;;;16.10;;
70560;SDS011;58109;53.570;10.084;2023-03-03T04:42:10;27.05;;;14.93;;
70560;SDS011;58109;53.570;10.084;2023-03-03T04:44:35;26.63;;;14.60;;
70560;SDS011;58109;53.570;10.084;2023-03-03T04:47:03;32.57;;;16.27;;
70560;SDS011;58109;53.570;10.084;2023-03-03T04:49:28;27.55;;;15.07;;
70560;SDS011;58109;53.570;10.084;2023-03-03T04:51:56;30.17;;;15.15;;
70560;SDS011;58109;53.570;10.084;2023-03-03T04:54:24;29.17;;;14.43;;
70560;SDS011;58109;53.570;10.084;2023-03-03T04:56:49;30.93;;;15.80;;
70560;SDS011;58109;53.570;10.084;2023-03-03T04:59:15;34.10;;;17.77;;
70560;SDS011;58109;53.570;10.084;2023-03-03T05:01:40;30.83;;;16.50;;
70560;SDS011;58109;53.570;10.084;2023-03-03T05:04:06;30.73;;;16.03;;
70560;SDS011;58109;53.570;10.084;2023-03-03T05:06:31;30.73;;;15.57;;
70560;SDS011;58109;53.570;10.084;2023-03-03T05:08:59;33.33;;;17.25;;
70560;SDS011;58109;53.570;10.084;2023-03-03T05:11:25;32.40;;;16.40;;
70560;SDS011;58109;53.570;10.084;2023-03-03T05:13:52;37.00;;;16.00;;
70560;SDS011;58109;53.570;10.084;2023-03-03T05:16:23;28.65;;;15.73;;
70560;SDS011;58109;53.570;10.084;2023-03-03T05:18:48;27.17;;;15.13;;
70560;SDS011;58109;53.570;10.084;2023-03-03T05:21:13;28.40;;;15.63;;
70560;SDS011;58109;53.570;10.084;2023-03-03T05:23:39;29.13;;;15.30;;
70560;SDS011;58109;53.570;10.084;2023-03-03T05:26:04;30.03;;;16.27;;
70560;SDS011;58109;53.570;10.084;2023-03-03T05:28:31;28.03;;;14.60;;
70560;SDS011;58109;53.570;10.084;2023-03-03T05:30:56;28.38;;;15.73;;
70560;SDS011;58109;53.570;10.084;2023-03-03T05:33:22;31.80;;;16.30;;
70560;SDS011;58109;53.570;10.084;2023-03-03T05:35:53;29.25;;;15.27;;
70560;SDS011;58109;53.570;10.084;2023-03-03T05:38:19;33.70;;;15.13;;
70560;SDS011;58109;53.570;10.084;2023-03-03T05:40:45;27.87;;;14.57;;
70560;SDS011;58109;53.570;10.084;2023-03-03T05:43:15;31.02;;;15.93;;
70560;SDS011;58109;53.570;10.084;2023-03-03T05:45:43;30.92;;;15.15;;
70560;SDS011;58109;53.570;10.084;2023-03-03T05:48:09;28.90;;;14.48;;
70560;SDS011;58109;53.570;10.084;2023-03-03T05:50:35;30.93;;;14.57;;
70560;SDS011;58109;53.570;10.084;2023-03-03T05:53:01;31.65;;;15.73;;
70560;SDS011;58109;53.570;10.084;2023-03-03T05:55:26;32.90;;;17.03;;
70560;SDS011;58109;53.570;10.084;2023-03-03T05:57:52;32.83;;;14.97;;
70560;SDS011;58109;53.570;10.084;2023-03-03T06:00:20;28.20;;;14.80;;
70560;SDS011;58109;53.570;10.084;2023-03-03T06:02:46;30.60;;;16.17;;
70560;SDS011;58109;53.570;10.084;2023-03-03T06:05:13;32.92;;;16.08;;
70560;SDS011;58109;53.570;10.084;2023-03-03T06:07:39;38.87;;;17.00;;
70560;SDS011;58109;53.570;10.084;2023-03-03T06:10:07;35.80;;;16.55;;
70560;SDS011;58109;53.570;10.084;2023-03-03T06:12:37;34.38;;;15.55;;
70560;SDS011;58109;53.570;10.084;2023-03-03T06:15:08;33.45;;;16.00;;
70560;SDS011;58109;53.570;10.084;2023-03-03T06:17:36;37.53;;;17.00;;
70560;SDS011;58109;53.570;10.084;2023-03-03T06:20:08;30.15;;;15.95;;
70560;SDS011;58109;53.570;10.084;2023-03-03T06:22:36;33.50;;;16.20;;
70560;SDS011;58109;53.570;10.084;2023-03-03T06:25:06;35.20;;;16.42;;
70560;SDS011;58109;53.570;10.084;2023-03-03T06:27:32;36.75;;;16.52;;
70560;SDS011;58109;53.570;10.084;2023-03-03T06:30:00;33.30;;;15.83;;
70560;SDS011;58109;53.570;10.084;2023-03-03T06:32:25;38.63;;;17.38;;
70560;SDS011;58109;53.570;10.084;2023-03-03T06:34:53;37.55;;;17.15;;
70560;SDS011;58109;53.570;10.084;2023-03-03T06:37:18;40.43;;;17.97;;
70560;SDS011;58109;53.570;10.084;2023-03-03T06:39:44;32.03;;;16.00;;
70560;SDS011;58109;53.570;10.084;2023-03-03T06:42:09;33.40;;;16.03;;
70560;SDS011;58109;53.570;10.084;2023-03-03T06:44:35;39.03;;;18.20;;
70560;SDS011;58109;53.570;10.084;2023-03-03T06:47:02;37.63;;;17.70;;
70560;SDS011;58109;53.570;10.084;2023-03-03T06:49:30;35.88;;;18.15;;
70560;SDS011;58109;53.570;10.084;2023-03-03T06:51:59;37.13;;;17.33;;
70560;SDS011;58109;53.570;10.084;2023-03-03T06:54:29;33.75;;;16.35;;
70560;SDS011;58109;53.570;10.084;2023-03-03T06:57:00;37.17;;;16.02;;
70560;SDS011;58109;53.570;10.084;2023-03-03T06:59:35;35.30;;;16.25;;
70560;SDS011;58109;53.570;10.084;2023-03-03T07:02:00;35.67;;;16.73;;
70560;SDS011;58109;53.570;10.084;2023-03-03T07:04:27;36.57;;;16.40;;
70560;SDS011;58109;53.570;10.084;2023-03-03T07:06:59;35.00;;;16.95;;
70560;SDS011;58109;53.570;10.084;2023-03-03T07:09:36;38.10;;;15.90;;
70560;SDS011;58109;53.570;10.084;2023-03-03T07:12:47;30.10;;;14.20;;
70560;SDS011;58109;53.570;10.084;2023-03-03T07:17:43;22.70;;;12.48;;
70560;SDS011;58109;53.570;10.084;2023-03-03T07:22:46;28.30;;;14.35;;
70560;SDS011;58109;53.570;10.084;2023-03-03T07:25:18;24.20;;;12.20;;
70560;SDS011;58109;53.570;10.084;2023-03-03T07:27:46;22.55;;;12.45;;
70560;SDS011;58109;53.570;10.084;2023-03-03T07:32:51;21.85;;;12.20;;
70560;SDS011;58109;53.570;10.084;2023-03-03T07:40:49;25.90;;;13.07;;
70560;SDS011;58109;53.570;10.084;2023-03-03T07:48:34;25.63;;;11.63;;
70560;SDS011;58109;53.570;10.084;2023-03-03T07:51:04;21.98;;;10.90;;
70560;SDS011;58109;53.570;10.084;2023-03-03T07:53:36;22.20;;;11.20;;
70560;SDS011;58109;53.570;10.084;2023-03-03T07:56:02;22.07;;;11.90;;
70560;SDS011;58109;53.570;10.084;2023-03-03T07:58:41;22.08;;;12.32;;
70560;SDS011;58109;53.570;10.084;2023-03-03T08:01:22;22.75;;;12.65;;
70560;SDS011;58109;53.570;10.084;2023-03-03T08:04:12;18.27;;;10.25;;
70560;SDS011;58109;53.570;10.084;2023-03-03T08:06:43;22.98;;;11.23;;
70560;SDS011;58109;53.570;10.084;2023-03-03T08:11:46;24.02;;;12.57;;
70560;SDS011;58109;53.570;10.084;2023-03-03T08:14:15;24.35;;;12.82;;
70560;SDS011;58109;53.570;10.084;2023-03-03T08:16:45;25.15;;;12.52;;
70560;SDS011;58109;53.570;10.084;2023-03-03T08:19:11;24.40;;;12.60;;
70560;SDS011;58109;53.570;10.084;2023-03-03T08:21:40;24.17;;;12.52;;
70560;SDS011;58109;53.570;10.084;2023-03-03T08:24:05;22.60;;;11.80;;
70560;SDS011;58109;53.570;10.084;2023-03-03T08:26:31;22.13;;;12.00;;
70560;SDS011;58109;53.570;10.084;2023-03-03T08:29:01;25.60;;;12.40;;
70560;SDS011;58109;53.570;10.084;2023-03-03T08:31:27;27.00;;;12.13;;
70560;SDS011;58109;53.570;10.084;2023-03-03T08:33:54;29.25;;;12.60;;
70560;SDS011;58109;53.570;10.084;2023-03-03T08:36:20;23.03;;;12.67;;
70560;SDS011;58109;53.570;10.084;2023-03-03T08:38:45;22.63;;;12.07;;
70560;SDS011;58109;53.570;10.084;2023-03-03T08:41:11;24.53;;;13.00;;
70560;SDS011;58109;53.570;10.084;2023-03-03T08:43:39;25.17;;;12.80;;
70560;SDS011;58109;53.570;10.084;2023-03-03T08:46:05;30.63;;;11.90;;
70560;SDS011;58109;53.570;10.084;2023-03-03T08:48:34;23.60;;;11.23;;
70560;SDS011;58109;53.570;10.084;2023-03-03T08:51:00;23.10;;;11.57;;
70560;SDS011;58109;53.570;10.084;2023-03-03T08:53:28;21.05;;;10.80;;
70560;SDS011;58109;53.570;10.084;2023-03-03T08:55:55;23.05;;;11.57;;
70560;SDS011;58109;53.570;10.084;2023-03-03T08:58:21;23.33;;;11.77;;
70560;SDS011;58109;53.570;10.084;2023-03-03T09:00:51;21.20;;;11.35;;
70560;SDS011;58109;53.570;10.084;2023-03-03T09:03:19;27.27;;;12.02;;
70560;SDS011;58109;53.570;10.084;2023-03-03T09:05:44;40.73;;;12.60;;
70560;SDS011;58109;53.570;10.084;2023-03-03T09:08:11;22.50;;;11.05;;
70560;SDS011;58109;53.570;10.084;2023-03-03T09:10:36;27.90;;;12.67;;
70560;SDS011;58109;53.570;10.084;2023-03-03T09:13:20;19.83;;;11.07;;
70560;SDS011;58109;53.570;10.084;2023-03-03T09:15:46;23.55;;;11.38;;
70560;SDS011;58109;53.570;10.084;2023-03-03T09:20:46;26.02;;;12.77;;
70560;SDS011;58109;53.570;10.084;2023-03-03T09:25:52;27.27;;;14.05;;
70560;SDS011;58109;53.570;10.084;2023-03-03T09:28:31;44.00;;;19.02;;
70560;SDS011;58109;53.570;10.084;2023-03-03T09:30:58;53.60;;;21.17;;
70560;SDS011;58109;53.570;10.084;2023-03-03T09:33:30;46.33;;;20.60;;
70560;SDS011;58109;53.570;10.084;2023-03-03T09:36:10;50.35;;;21.08;;
70560;SDS011;58109;53.570;10.084;2023-03-03T09:38:43;43.83;;;17.73;;
70560;SDS011;58109;53.570;10.084;2023-03-03T09:47:26;48.88;;;16.73;;
70560;SDS011;58109;53.570;10.084;2023-03-03T09:50:47;43.55;;;19.05;;
70560;SDS011;58109;53.570;10.084;2023-03-03T10:06:10;32.80;;;15.95;;
70560;SDS011;58109;53.570;10.084;2023-03-03T10:08:51;33.00;;;15.82;;
70560;SDS011;58109;53.570;10.084;2023-03-03T10:20:01;36.58;;;16.15;;
70560;SDS011;58109;53.570;10.084;2023-03-03T10:30:39;56.17;;;21.23;;
70560;SDS011;58109;53.570;10.084;2023-03-03T10:49:36;34.03;;;15.35;;
70560;SDS011;58109;53.570;10.084;2023-03-03T11:00:34;41.85;;;16.80;;
70560;SDS011;58109;53.570;10.084;2023-03-03T11:08:23;32.83;;;14.57;;
70560;SDS011;58109;53.570;10.084;2023-03-03T11:33:17;37.10;;;17.45;;
70560;SDS011;58109;53.570;10.084;2023-03-03T11:41:30;36.85;;;17.98;;
70560;SDS011;58109;53.570;10.084;2023-03-03T11:43:58;38.13;;;17.48;;
70560;SDS011;58109;53.570;10.084;2023-03-03T11:46:39;36.55;;;18.13;;
70560;SDS011;58109;53.570;10.084;2023-03-03T11:49:21;37.15;;;18.20;;
70560;SDS011;58109;53.570;10.084;2023-03-03T11:54:33;39.80;;;19.55;;
70560;SDS011;58109;53.570;10.084;2023-03-03T11:57:15;39.08;;;20.25;;
70560;SDS011;58109;53.570;10.084;2023-03-03T12:00:23;45.50;;;17.63;;
70560;SDS011;58109;53.570;10.084;2023-03-03T12:06:11;27.85;;;14.07;;
70560;SDS011;58109;53.570;10.084;2023-03-03T12:12:17;23.35;;;12.82;;
70560;SDS011;58109;53.570;10.084;2023-03-03T12:25:50;29.70;;;13.00;;
70560;SDS011;58109;53.570;10.084;2023-03-03T12:28:26;26.45;;;12.15;;
70560;SDS011;58109;53.570;10.084;2023-03-03T12:50:19;29.20;;;10.40;;
70560;SDS011;58109;53.570;10.084;2023-03-03T13:08:56;20.48;;;8.65;;
70560;SDS011;58109;53.570;10.084;2023-03-03T13:17:37;13.85;;;6.40;;
70560;SDS011;58109;53.570;10.084;2023-03-03T13:20:12;12.20;;;5.30;;
70560;SDS011;58109;53.570;10.084;2023-03-03T13:22:53;11.57;;;4.60;;
70560;SDS011;58109;53.570;10.084;2023-03-03T13:28:05;7.18;;;3.70;;
70560;SDS011;58109;53.570;10.084;2023-03-03T13:31:36;9.10;;;3.70;;
70560;SDS011;58109;53.570;10.084;2023-03-03T13:33:50;7.07;;;2.90;;
70560;SDS011;58109;53.570;10.084;2023-03-03T13:36:18;6.97;;;3.60;;
70560;SDS011;58109;53.570;10.084;2023-03-03T13:38:48;7.53;;;2.90;;
70560;SDS011;58109;53.570;10.084;2023-03-03T13:41:24;7.50;;;3.50;;
70560;SDS011;58109;53.570;10.084;2023-03-03T13:52:19;6.00;;;2.20;;
70560;SDS011;58109;53.570;10.084;2023-03-03T14:03:33;2.75;;;1.40;;
70560;SDS011;58109;53.570;10.084;2023-03-03T14:05:55;4.70;;;1.00;;
70560;SDS011;58109;53.570;10.084;2023-03-03T14:20:23;5.38;;;1.65;;
70560;SDS011;58109;53.570;10.084;2023-03-03T14:23:26;6.90;;;1.23;;
70560;SDS011;58109;53.570;10.084;2023-03-03T14:25:51;10.53;;;1.93;;
70560;SDS011;58109;53.570;10.084;2023-03-03T14:28:25;2.30;;;1.30;;
70560;SDS011;58109;53.570;10.084;2023-03-03T14:30:57;4.40;;;1.00;;
70560;SDS011;58109;53.570;10.084;2023-03-03T14:33:27;10.52;;;1.70;;
70560;SDS011;58109;53.570;10.084;2023-03-03T14:38:22;5.83;;;1.90;;
70560;SDS011;58109;53.570;10.084;2023-03-03T14:41:42;1.87;;;1.20;;
70560;SDS011;58109;53.570;10.084;2023-03-03T14:44:21;3.20;;;1.00;;
70560;SDS011;58109;53.570;10.084;2023-03-03T14:49:43;5.53;;;1.20;;
70560;SDS011;58109;53.570;10.084;2023-03-03T14:54:37;10.70;;;1.60;;
70560;SDS011;58109;53.570;10.084;2023-03-03T14:59:56;8.52;;;1.33;;
70560;SDS011;58109;53.570;10.084;2023-03-03T15:05:31;5.68;;;1.10;;
70560;SDS011;58109;53.570;10.084;2023-03-03T15:13:33;7.77;;;1.40;;
70560;SDS011;58109;53.570;10.084;2023-03-03T15:16:04;10.57;;;1.40;;
70560;SDS011;58109;53.570;10.084;2023-03-03T15:18:48;8.67;;;1.30;;
70560;SDS011;58109;53.570;10.084;2023-03-03T15:21:34;5.28;;;1.48;;
70560;SDS011;58109;53.570;10.084;2023-03-03T15:24:22;5.53;;;1.50;;
70560;SDS011;58109;53.570;10.084;2023-03-03T15:27:00;10.70;;;1.70;;
70560;SDS011;58109;53.570;10.084;2023-03-03T15:29:39;10.73;;;1.60;;
70560;SDS011;58109;53.570;10.084;2023-03-03T15:32:14;5.35;;;1.35;;
70560;SDS011;58109;53.570;10.084;2023-03-03T15:34:46;7.50;;;1.70;;
70560;SDS011;58109;53.570;10.084;2023-03-03T15:40:27;5.60;;;2.00;;
70560;SDS011;58109;53.570;10.084;2023-03-03T15:45:49;9.55;;;1.83;;
70560;SDS011;58109;53.570;10.084;2023-03-03T16:07:45;13.83;;;2.10;;
70560;SDS011;58109;53.570;10.084;2023-03-03T16:23:59;12.93;;;2.07;;
70560;SDS011;58109;53.570;10.084;2023-03-03T16:26:34;6.50;;;1.53;;
70560;SDS011;58109;53.570;10.084;2023-03-03T16:31:36;14.80;;;2.43;;
70560;SDS011;58109;53.570;10.084;2023-03-03T16:37:11;15.90;;;2.30;;
70560;SDS011;58109;53.570;10.084;2023-03-03T16:42:25;22.55;;;3.67;;
70560;SDS011;58109;53.570;10.084;2023-03-03T16:53:07;23.67;;;2.83;;
70560;SDS011;58109;53.570;10.084;2023-03-03T16:56:04;19.67;;;3.20;;
70560;SDS011;58109;53.570;10.084;2023-03-03T16:58:47;18.03;;;2.67;;
70560;SDS011;58109;53.570;10.084;2023-03-03T17:06:28;11.50;;;2.60;;
70560;SDS011;58109;53.570;10.084;2023-03-03T17:15:19;14.40;;;2.63;;
70560;SDS011;58109;53.570;10.084;2023-03-03T17:23:34;18.23;;;2.35;;
70560;SDS011;58109;53.570;10.084;2023-03-03T17:32:20;25.02;;;2.70;;
70560;SDS011;58109;53.570;10.084;2023-03-03T17:43:27;26.73;;;2.80;;
70560;SDS011;58109;53.570;10.084;2023-03-03T17:45:58;28.63;;;3.63;;
70560;SDS011;58109;53.570;10.084;2023-03-03T18:19:44;25.93;;;4.13;;
70560;SDS011;58109;53.570;10.084;2023-03-03T18:22:31;28.42;;;4.93;;
70560;SDS011;58109;53.570;10.084;2023-03-03T18:25:03;26.03;;;4.13;;
70560;SDS011;58109;53.570;10.084;2023-03-03T18:27:40;32.27;;;4.00;;
70560;SDS011;58109;53.570;10.084;2023-03-03T18:30:28;21.07;;;3.70;;
70560;SDS011;58109;53.570;10.084;2023-03-03T18:35:34;38.57;;;6.07;;
70560;SDS011;58109;53.570;10.084;2023-03-03T18:48:52;25.17;;;3.92;;
70560;SDS011;58109;53.570;10.084;2023-03-03T18:52:12;28.43;;;5.20;;
70560;SDS011;58109;53.570;10.084;2023-03-03T18:54:23;29.90;;;6.07;;
70560;SDS011;58109;53.570;10.084;2023-03-03T19:04:37;20.88;;;4.20;;
70560;SDS011;58109;53.570;10.084;2023-03-03T19:07:48;37.65;;;5.32;;
70560;SDS011;58109;53.570;10.084;2023-03-03T19:17:57;37.85;;;5.20;;
70560;SDS011;58109;53.570;10.084;2023-03-03T19:20:40;25.00;;;4.10;;
70560;SDS011;58109;53.570;10.084;2023-03-03T19:23:19;25.33;;;4.67;;
70560;SDS011;58109;53.570;10.084;2023-03-03T19:26:04;36.50;;;4.27;;
70560;SDS011;58109;53.570;10.084;2023-03-03T19:28:46;28.63;;;4.60;;
70560;SDS011;58109;53.570;10.084;2023-03-03T19:35:07;43.57;;;6.37;;
70560;SDS011;58109;53.570;10.084;2023-03-03T19:37:27;32.15;;;5.55;;
70560;SDS011;58109;53.570;10.084;2023-03-03T19:45:56;42.13;;;6.00;;
70560;SDS011;58109;53.570;10.084;2023-03-03T19:56:47;34.13;;;5.75;;
70560;SDS011;58109;53.570;10.084;2023-03-03T20:10:54;24.63;;;4.20;;
70560;SDS011;58109;53.570;10.084;2023-03-03T20:16:12;41.30;;;4.40;;
70560;SDS011;58109;53.570;10.084;2023-03-03T20:21:33;36.57;;;5.60;;
70560;SDS011;58109;53.570;10.084;2023-03-03T20:32:11;40.37;;;4.40;;
70560;SDS011;58109;53.570;10.084;2023-03-03T20:37:42;32.22;;;5.00;;
70560;SDS011;58109;53.570;10.084;2023-03-03T20:40:36;35.80;;;5.73;;
70560;SDS011;58109;53.570;10.084;2023-03-03T20:43:21;26.23;;;3.90;;
70560;SDS011;58109;53.570;10.084;2023-03-03T20:45:59;35.10;;;5.70;;
70560;SDS011;58109;53.570;10.084;2023-03-03T20:48:33;32.13;;;5.07;;
70560;SDS011;58109;53.570;10.084;2023-03-03T20:53:46;32.17;;;6.43;;
70560;SDS011;58109;53.570;10.084;2023-03-03T20:59:10;34.33;;;5.30;;
70560;SDS011;58109;53.570;10.084;2023-03-03T21:02:07;32.37;;;4.60;;
70560;SDS011;58109;53.570;10.084;2023-03-03T21:05:18;31.17;;;4.80;;
70560;SDS011;58109;53.570;10.084;2023-03-03T21:10:22;45.83;;;6.22;;
70560;SDS011;58109;53.570;10.084;2023-03-03T21:12:55;28.73;;;4.57;;
70560;SDS011;58109;53.570;10.084;2023-03-03T21:15:29;41.00;;;5.47;;
70560;SDS011;58109;53.570;10.084;2023-03-03T21:17:58;30.77;;;4.72;;
70560;SDS011;58109;53.570;10.084;2023-03-03T21:20:31;30.40;;;4.70;;
70560;SDS011;58109;53.570;10.084;2023-03-03T21:23:00;31.93;;;4.63;;
70560;SDS011;58109;53.570;10.084;2023-03-03T21:25:50;27.80;;;4.90;;
70560;SDS011;58109;53.570;10.084;2023-03-03T21:31:13;33.80;;;4.90;;
70560;SDS011;58109;53.570;10.084;2023-03-03T21:36:16;35.97;;;4.07;;
70560;SDS011;58109;53.570;10.084;2023-03-03T21:38:43;23.55;;;3.67;;
70560;SDS011;58109;53.570;10.084;2023-03-03T21:41:12;47.83;;;4.17;;
70560;SDS011;58109;53.570;10.084;2023-03-03T21:43:39;47.30;;;9.80;;
70560;SDS011;58109;53.570;10.084;2023-03-03T21:46:09;29.50;;;5.30;;
70560;SDS011;58109;53.570;10.084;2023-03-03T21:48:42;29.00;;;3.67;;
70560;SDS011;58109;53.570;10.084;2023-03-03T21:51:08;29.53;;;4.60;;
70560;SDS011;58109;53.570;10.084;2023-03-03T21:53:36;20.93;;;4.03;;
70560;SDS011;58109;53.570;10.084;2023-03-03T21:56:02;25.40;;;3.10;;
70560;SDS011;58109;53.570;10.084;2023-03-03T21:58:27;22.40;;;3.63;;
70560;SDS011;58109;53.570;10.084;2023-03-03T22:00:55;31.87;;;3.83;;
70560;SDS011;58109;53.570;10.084;2023-03-03T22:03:20;31.55;;;3.60;;
70560;SDS011;58109;53.570;10.084;2023-03-03T22:05:53;37.97;;;4.13;;
70560;SDS011;58109;53.570;10.084;2023-03-03T22:08:21;33.47;;;4.20;;
70560;SDS011;58109;53.570;10.084;2023-03-03T22:10:48;31.10;;;3.60;;
70560;SDS011;58109;53.570;10.084;2023-03-03T22:13:17;34.90;;;4.13;;